This is the latest recevied weather packets stored in our database for station/object KB4RFE. If no packets are shown the sender has not sent any weather packets the latest 1 day(s).
| Time | Temp. | Humidity | Pressure | Rain* | Wind** | Luminosity | Snow |
|---|---|---|---|---|---|---|---|
| 1778048450 | 20.56° C | 82% | 1018.7 hPa | 0 mm | 0.89 m/s, 285° | 0 W/m² | - |
| 1778048146 | 20.56° C | 81% | 1018.5 hPa | 0 mm | 1.79 m/s, 242° | 0 W/m² | - |
| 1778047844 | 20.56° C | 81% | 1018.6 hPa | 0 mm | 1.79 m/s, 240° | 0 W/m² | - |
| 1778047543 | 20.56° C | 80% | 1018.4 hPa | 0 mm | 0.89 m/s, 269° | 0 W/m² | - |
| 1778047239 | 20.56° C | 80% | 1018.8 hPa | 0 mm | 0.89 m/s, 279° | 0 W/m² | - |
| 1778046936 | 20.56° C | 79% | 1018.5 hPa | 0 mm | 1.79 m/s, 253° | 0 W/m² | - |
| 1778046633 | 20.56° C | 79% | 1018.8 hPa | 0 mm | 0.89 m/s, 268° | 0 W/m² | - |
| 1778046330 | 20.56° C | 80% | 1018.7 hPa | 0 mm | 0.89 m/s, 245° | 0 W/m² | - |
| 1778046026 | 20.56° C | 79% | 1018.9 hPa | 0 mm | 0.89 m/s, 247° | 0 W/m² | - |
| 1778045724 | 20.56° C | 78% | 1019.1 hPa | 0 mm | 1.34 m/s, 237° | 0 W/m² | - |
| 1778045422 | 20.56° C | 77% | 1019.2 hPa | 0 mm | 1.34 m/s, 258° | 0 W/m² | - |
| 1778045120 | 20.56° C | 77% | 1019.1 hPa | 0 mm | 0.89 m/s, 240° | 0 W/m² | - |
| 1778044818 | 20.56° C | 77% | 1019.2 hPa | 0 mm | 1.34 m/s, 218° | 0 W/m² | - |
| 1778044514 | 20.56° C | 77% | 1019.3 hPa | 0 mm | 1.34 m/s, 252° | 0 W/m² | - |
| 1778044211 | 20.56° C | 77% | 1019.3 hPa | 0 mm | 1.79 m/s, 220° | 0 W/m² | - |
| 1778043909 | 20.56° C | 77% | 1019.5 hPa | 0 mm | 1.79 m/s, 236° | 0 W/m² | - |
| 1778043606 | 20.56° C | 76% | 1019.3 hPa | 0 mm | 0.89 m/s, 272° | 0 W/m² | - |
| 1778043302 | 21.11° C | 76% | 1019.5 hPa | 0 mm | 0.89 m/s, 259° | 0 W/m² | - |
| 1778042999 | 21.11° C | 76% | 1019.4 hPa | 0 mm | 3.13 m/s, 236° | 0 W/m² | - |
| 1778042698 | 21.11° C | 76% | 1019.7 hPa | 0 mm | 0.89 m/s, 271° | 0 W/m² | - |
| 1778042394 | 21.11° C | 76% | 1019.4 hPa | 0 mm | 0.89 m/s, 273° | 0 W/m² | - |
| 1778042091 | 21.11° C | 76% | 1019.5 hPa | 0 mm | 0.89 m/s, 251° | 0 W/m² | - |
| 1778041789 | 21.11° C | 75% | 1019.4 hPa | 0 mm | 1.79 m/s, 258° | 0 W/m² | - |
| 1778041488 | 21.11° C | 75% | 1019.4 hPa | 0 mm | 1.34 m/s, 257° | 0 W/m² | - |
| 1778041186 | 21.11° C | 75% | 1019.5 hPa | 0 mm | 0.89 m/s, 261° | 0 W/m² | - |
* Rain latest hour (hover to see other rain measurements)
** Current wind speed in m/s (hover to see current wind gust speed)